Latest Weather Observations for Swan Island

IDT60801

Issued at 9:05 pm EST Tuesday 22 July 2014 (issued every 30 minutes, with the page automatically refreshed every 10 minutes)

About weather observations | Map of weather stations | Latest weather observations for TAS | Other Formats
Station Details ID: 092123 Name: SWAN ISLAND Lat: -40.73 Lon: 148.12 Height: 15.0 m
Data from the previous 72 hours. | See also: Recent months at Swan Island
Date/Time
EST
Temp
°C
App
Temp
°C
Dew
Point
Rel
Hum
%
Delta-T
°C
Wind Press
QNH
hPa
Press
MSL
hPa
Rain
since 9 am
mm
Dir
 
Spd
km/h
Gust
km/h
Spd
kts
Gust
kts
22/09:00pm 8.9 - - - - W 7 7 4 4 1025.0 1025.0 0.0
22/08:30pm 9.0 - - - - W 4 4 2 2 1024.9 - 0.0
22/08:00pm 9.2 - - - - W 4 4 2 2 1024.9 1024.9 0.0
22/07:30pm 9.3 - - - - W 6 6 3 3 1024.9 - 0.0
22/07:00pm 9.9 - - - - W 4 6 2 3 1024.9 1024.9 0.0
22/06:30pm 10.0 - - - - W 4 6 2 3 1024.8 - 0.0
22/06:00pm 10.3 - - - - W 4 7 2 4 1024.5 1024.5 0.0
22/05:30pm 11.0 - - - - W 4 6 2 3 1024.4 - 0.0
22/05:00pm 11.2 - - - - W 7 9 4 5 1024.4 1024.4 0.0
22/04:30pm 11.7 - - - - W 9 11 5 6 1024.4 - 0.0
22/04:00pm 12.0 - - - - W 7 9 4 5 1024.3 1024.3 0.0
22/03:30pm 12.6 - - - - W 11 13 6 7 1024.1 - 0.0
22/03:00pm 12.9 - - - - W 7 11 4 6 1024.1 1024.1 0.0
22/02:30pm 12.8 - - - - W 11 15 6 8 1024.0 - 0.0
22/02:00pm 13.3 - - - - W 7 13 4 7 1024.1 1024.1 0.0
22/01:30pm 13.5 - - - - WNW 6 9 3 5 1024.2 - 0.0
22/01:00pm 13.5 - - - - WNW 6 9 3 5 1024.4 1024.4 0.0
22/12:30pm 13.2 - - - - SSW 4 6 2 3 1024.9 - 0.0
22/12:00pm 12.3 - - - - SSE 6 7 3 4 1025.3 1025.3 0.0
22/11:30am 12.4 - - - - SSW 6 9 3 5 1025.8 - 0.0
22/11:00am 11.7 - - - - SSW 7 9 4 5 1026.2 1026.2 0.0
22/10:30am 11.8 - - - - SSW 7 11 4 6 1026.4 - 0.0
22/10:00am 11.3 - - - - SSW 9 13 5 7 1026.3 1026.3 0.0
22/09:30am 10.6 - - - - SSW 9 11 5 6 1026.1 - 0.0
22/09:00am 10.0 - - - - SSW 9 11 5 6 1026.1 1026.1 0.0
22/08:30am 9.8 - - - - S 11 15 6 8 1025.9 - 0.0
22/08:00am 9.5 - - - - S 9 11 5 6 1025.8 1025.8 0.0
22/07:30am 9.0 - - - - S 9 13 5 7 1025.6 - 0.0
22/07:00am 9.3 - - - - S 9 13 5 7 1025.3 1025.3 0.0
22/06:30am 9.3 - - - - SSW 7 11 4 6 1025.2 - 0.0
22/06:00am 9.4 - - - - SSW 9 13 5 7 1025.1 1025.1 0.0
22/05:30am 9.0 - - - - S 9 13 5 7 1024.8 - 0.0
22/05:00am 8.8 - - - - S 11 13 6 7 1024.7 1024.7 0.0
22/04:30am 8.6 - - - - S 9 11 5 6 1024.8 - 0.0
22/04:00am 8.7 - - - - S 9 11 5 6 1024.8 1024.8 0.0
22/03:30am 8.7 - - - - SSW 9 11 5 6 1024.9 - 0.0
22/03:00am 8.5 - - - - S 9 13 5 7 1024.9 1024.9 0.0
22/02:30am 8.5 - - - - S 9 13 5 7 1025.0 - 0.0
22/02:00am 8.5 - - - - SSW 13 15 7 8 1025.1 1025.1 0.0
22/01:30am 8.3 - - - - SSW 11 13 6 7 1025.2 - 0.0
22/01:00am 7.8 - - - - SSW 11 13 6 7 1025.1 1025.1 0.0
22/12:30am 7.7 - - - - S 11 13 6 7 1025.3 - 0.0
22/12:00am 8.1 - - - - SSW 11 11 6 6 1025.3 1025.3 0.0
 
Date/Time
EST
Temp
°C
App
Temp
°C
Dew
Point
Rel
Hum
%
Delta-T
°C
Wind Press
QNH
hPa
Press
MSL
hPa
Rain
since 9 am
mm
Dir
 
Spd
km/h
Gust
km/h
Spd
kts
Gust
kts
21/11:30pm 8.2 - - - - S 9 11 5 6 1025.5 - 0.0
21/11:00pm 8.2 - - - - SSW 11 13 6 7 1025.6 1025.6 0.0
21/10:30pm 8.3 - - - - S 9 9 5 5 1025.7 - 0.0
21/10:00pm 8.5 - - - - S 9 11 5 6 1025.8 1025.8 0.0
21/09:30pm 8.9 - - - - S 7 9 4 5 1025.9 - 0.0
21/09:00pm 9.3 - - - - SSW 7 7 4 4 1026.0 1026.0 0.0
21/08:30pm 9.3 - - - - S 7 7 4 4 1025.9 - 0.0
21/08:00pm 10.4 - - - - SSW 4 4 2 2 1025.8 1025.8 0.0
21/07:30pm 9.9 - - - - SSW 6 7 3 4 1025.8 - 0.0
21/07:00pm 10.2 - - - - CALM 0 0 0 0 1025.7 1025.7 0.0
21/06:30pm 10.2 - - - - CALM 0 0 0 0 1025.6 - 0.0
21/06:00pm 10.3 - - - - CALM 0 0 0 0 1025.5 1025.5 0.0
21/05:30pm 11.1 - - - - CALM 0 0 0 0 1025.3 - 0.0
21/05:00pm 11.3 - - - - CALM 0 0 0 0 1025.2 1025.2 0.0
21/04:30pm 11.2 - - - - CALM 0 0 0 0 1025.1 - 0.0
21/04:00pm 11.9 - - - - CALM 0 0 0 0 1025.0 1025.0 0.0
21/03:30pm 12.4 - - - - ESE 4 4 2 2 1025.0 - 0.0
21/03:00pm 12.4 - - - - ESE 4 4 2 2 1024.9 1024.9 0.0
21/02:30pm 12.8 - - - - SE 4 6 2 3 1024.9 - 0.0
21/02:00pm 12.8 - - - - SE 4 6 2 3 1025.0 1025.0 0.0
21/01:30pm 12.8 - - - - SE 6 7 3 4 1025.0 - 0.0
21/01:00pm 12.4 - - - - SE 7 9 4 5 1025.3 1025.3 0.0
21/12:30pm 12.6 - - - - SSE 9 11 5 6 1025.7 - 0.0
21/12:00pm 12.2 - - - - SSE 11 13 6 7 1025.9 1025.9 0.0
21/11:30am 11.7 - - - - SSE 9 11 5 6 1026.3 - 0.0
21/11:00am 11.7 - - - - S 7 9 4 5 1026.7 1026.7 0.0
21/10:30am 10.7 - - - - SSW 9 11 5 6 1026.9 - 0.0
21/10:00am 10.2 - - - - SSW 7 9 4 5 1027.0 1027.0 0.0
21/09:30am 9.5 - - - - SSW 9 13 5 7 1027.1 - 0.0
21/09:00am 8.9 - - - - S 9 11 5 6 1027.0 1027.0 0.2
21/08:30am 8.1 - - - - SSW 9 11 5 6 1026.8 - 0.2
21/08:00am 7.8 - - - - SSW 9 9 5 5 1026.9 1026.9 0.2
21/07:30am 7.1 - - - - S 9 11 5 6 1026.7 - 0.2
21/07:00am 7.2 - - - - SSW 11 11 6 6 1026.5 1026.5 0.2
21/06:30am 7.7 - - - - S 9 11 5 6 1026.5 - 0.0
21/06:00am 7.6 - - - - SSW 9 11 5 6 1026.4 1026.4 0.0
21/05:30am 7.8 - - - - S 9 11 5 6 1026.3 - 0.0
21/05:00am 7.3 - - - - S 11 11 6 6 1026.2 1026.2 0.0
21/04:30am 7.3 - - - - S 9 11 5 6 1026.1 - 0.0
21/04:00am 7.8 - - - - S 9 11 5 6 1026.0 1026.0 0.0
21/03:30am 8.3 - - - - S 9 13 5 7 1026.0 - 0.0
21/03:00am 8.1 - - - - S 9 13 5 7 1026.1 1026.1 0.0
21/02:30am 8.1 - - - - S 11 13 6 7 1026.4 - 0.0
21/02:00am 7.5 - - - - SSW 13 15 7 8 1026.6 1026.6 0.0
21/01:30am 8.1 - - - - SSW 9 13 5 7 1026.7 - 0.0
21/01:00am 8.1 - - - - SSW 9 11 5 6 1026.6 1026.6 0.0
21/12:30am 7.9 - - - - S 9 13 5 7 1026.8 - 0.0
21/12:00am 8.2 - - - - S 9 11 5 6 1026.8 1026.8 0.0
 
Date/Time
EST
Temp
°C
App
Temp
°C
Dew
Point
Rel
Hum
%
Delta-T
°C
Wind Press
QNH
hPa
Press
MSL
hPa
Rain
since 9 am
mm
Dir
 
Spd
km/h
Gust
km/h
Spd
kts
Gust
kts
20/11:30pm 8.3 - - - - S 9 9 5 5 1026.9 - 0.0
20/11:00pm 8.4 - - - - SSW 7 7 4 4 1026.9 1026.9 0.0
20/10:30pm 8.5 - - - - SW 9 9 5 5 1026.9 - 0.0
20/10:00pm 8.7 - - - - N 7 7 4 4 1026.9 1026.9 0.0
20/09:30pm 8.8 - - - - N 7 9 4 5 1026.9 - 0.0
20/09:00pm 8.8 - - - - N 7 7 4 4 1026.9 1026.9 0.0
20/08:30pm 8.5 - - - - N 7 7 4 4 1027.0 - 0.0
20/08:00pm 8.9 - - - - N 4 7 2 4 1026.9 1026.9 0.0
20/07:30pm 9.0 - - - - N 4 4 2 2 1026.8 - 0.0
20/07:00pm 9.5 - - - - N 4 4 2 2 1026.7 1026.7 0.0
20/06:30pm 9.9 - - - - N 2 4 1 2 1026.5 - 0.0
20/06:00pm 9.9 - - - - CALM 0 0 0 0 1026.3 1026.3 0.0
20/05:30pm 9.9 - - - - CALM 0 0 0 0 1026.0 - 0.0
20/05:00pm 10.5 - - - - E 4 4 2 2 1025.9 1025.9 0.0
20/04:30pm 11.1 - - - - E 6 7 3 4 1025.8 - 0.0
20/04:00pm 11.6 - - - - ENE 6 7 3 4 1025.8 1025.8 0.0
20/03:30pm 12.2 - - - - E 6 7 3 4 1025.6 - 0.0
20/03:00pm 12.4 - - - - E 6 7 3 4 1025.6 1025.6 0.0
20/02:30pm 12.7 - - - - E 6 6 3 3 1025.5 - 0.0
20/02:00pm 12.2 - - - - ESE 6 7 3 4 1025.6 1025.6 0.0
20/01:30pm 13.3 - - - - NNE 4 4 2 2 1025.6 - 0.0
20/01:00pm 13.0 - - - - ENE 4 6 2 3 1025.8 1025.8 0.0
20/12:30pm 12.4 - - - - ENE 4 6 2 3 1026.2 - 0.0
20/12:00pm 12.4 - - - - E 4 6 2 3 1026.5 1026.5 0.0
20/11:30am 11.1 - - - - SE 6 9 3 5 1026.7 - 0.0
20/11:00am 10.7 - - - - SSE 7 9 4 5 1027.1 1027.1 0.0
20/10:30am 10.6 - - - - S 7 9 4 5 1027.2 - 0.0
20/10:00am 9.5 - - - - SSW 9 11 5 6 1027.1 1027.1 0.0
20/09:30am 9.2 - - - - S 7 9 4 5 1026.9 - 0.0
20/09:00am 9.0 - - - - S 7 11 4 6 1026.7 1026.7 0.2
20/08:30am 8.0 - - - - SSW 9 11 5 6 1026.5 - 0.2
20/08:00am 7.1 - - - - SSW 9 11 5 6 1026.3 1026.3 0.2
20/07:30am 6.2 - - - - SSW 11 13 6 7 1026.1 - 0.0
20/07:00am 6.3 - - - - S 11 13 6 7 1025.9 1025.9 0.0
20/06:30am 6.5 - - - - S 11 13 6 7 1025.7 - 0.0
20/06:00am 6.9 - - - - S 9 11 5 6 1025.4 1025.4 0.0
20/05:30am 6.8 - - - - SSW 9 11 5 6 1025.2 - 0.0
20/05:00am 6.8 - - - - SSW 9 11 5 6 1025.2 1025.2 0.0
20/04:30am 6.8 - - - - SSW 9 11 5 6 1025.1 - 0.0
20/04:00am 6.7 - - - - SSW 9 11 5 6 1025.2 1025.2 0.0
20/03:30am 7.0 - - - - SSW 9 11 5 6 1025.2 - 0.0
20/03:00am 7.2 - - - - SSW 9 11 5 6 1025.5 1025.5 0.0
20/02:30am 7.4 - - - - SSW 9 11 5 6 1025.6 - 0.0
20/02:00am 7.4 - - - - SSW 7 9 4 5 1025.6 1025.6 0.0
20/01:30am 7.6 - - - - SSW 7 7 4 4 1025.6 - 0.0
20/01:00am 7.9 - - - - SSW 7 9 4 5 1025.8 1025.8 0.0
20/12:30am 7.9 - - - - SSW 9 9 5 5 1026.2 - 0.0
20/12:00am 7.8 - - - - SSW 9 11 5 6 1026.2 1026.2 0.0
 
Date/Time
EST
Temp
°C
App
Temp
°C
Dew
Point
Rel
Hum
%
Delta-T
°C
Wind Press
QNH
hPa
Press
MSL
hPa
Rain
since 9 am
mm
Dir
 
Spd
km/h
Gust
km/h
Spd
kts
Gust
kts
19/11:30pm 8.0 - - - - SSW 7 9 4 5 1026.2 - 0.0
19/11:00pm 8.1 - - - - SSW 6 6 3 3 1026.2 1026.2 0.0
19/10:30pm 8.6 - - - - SSW 6 7 3 4 1026.4 - 0.0
19/10:00pm 8.6 - - - - S 6 7 3 4 1026.7 1026.7 0.0
19/09:30pm 9.1 - - - - S 4 6 2 3 1026.8 - 0.0

Other Formats:

Comma delimited format used in spreadsheet applications
http://www.bom.gov.au/fwo/IDT60801/IDT60801.95985.axf

JavaScript Object Notation format (JSON) in row-major order
http://www.bom.gov.au/fwo/IDT60801/IDT60801.95985.json